createdAt,value
2022-08-25T00:00:32.461Z,51.111290
2022-08-25T00:01:32.425Z,51.111298
2022-08-25T00:02:32.518Z,51.111271
2022-08-25T00:03:35.910Z,51.111279
2022-08-25T00:04:33.802Z,51.111282
2022-08-25T00:05:33.560Z,51.111271
2022-08-25T00:06:32.332Z,51.111290
2022-08-25T00:07:32.348Z,51.111275
2022-08-25T00:08:32.424Z,51.111275
2022-08-25T00:09:32.315Z,51.111290
2022-08-25T00:10:32.311Z,51.111305
2022-08-25T00:11:32.287Z,51.111290
2022-08-25T00:12:32.292Z,51.111309
2022-08-25T00:13:32.320Z,51.111252
2022-08-25T00:14:32.367Z,51.111240
2022-08-25T00:15:32.432Z,51.111225
2022-08-25T00:16:32.292Z,51.111282
2022-08-25T00:17:32.345Z,51.111328
2022-08-25T00:18:32.310Z,51.111286
2022-08-25T00:19:33.348Z,51.111271
2022-08-25T00:20:32.306Z,51.111279
2022-08-25T00:21:32.306Z,51.111248
2022-08-25T00:22:32.252Z,51.111271
2022-08-25T00:23:32.325Z,51.111233
2022-08-25T00:24:32.302Z,51.111263
2022-08-25T00:25:32.339Z,51.111263
2022-08-25T00:26:32.239Z,51.111320
2022-08-25T00:27:32.284Z,51.111271
2022-08-25T00:28:32.253Z,51.111263
2022-08-25T00:29:32.316Z,51.111237
2022-08-25T00:30:33.199Z,51.111282
2022-08-25T00:31:38.619Z,51.111263
2022-08-25T00:32:33.204Z,51.111286
2022-08-25T00:33:32.197Z,51.111267
2022-08-25T00:34:32.185Z,51.111275
2022-08-25T00:35:32.239Z,51.111282
2022-08-25T00:36:32.191Z,51.111279
2022-08-25T00:37:32.206Z,51.111282
2022-08-25T00:38:32.183Z,51.111279
2022-08-25T00:39:32.165Z,51.111263
2022-08-25T00:40:32.241Z,51.111248
2022-08-25T00:41:32.158Z,51.111256
2022-08-25T00:42:32.180Z,51.111252
2022-08-25T00:43:32.147Z,51.111244
2022-08-25T00:44:32.143Z,51.111248
2022-08-25T00:45:32.119Z,51.111248
2022-08-25T00:46:32.196Z,51.111229
2022-08-25T00:47:32.086Z,51.111240
2022-08-25T00:48:32.113Z,51.111233
2022-08-25T00:49:32.092Z,51.111263
2022-08-25T00:50:32.118Z,51.111252
2022-08-25T00:51:32.067Z,51.111290
2022-08-25T00:52:32.039Z,51.111248
2022-08-25T00:53:32.011Z,51.111259
2022-08-25T00:54:32.003Z,51.111248
2022-08-25T00:55:31.981Z,51.111237
2022-08-25T00:56:32.018Z,51.111229
2022-08-25T00:57:34.690Z,51.111252
2022-08-25T00:58:31.977Z,51.111286
2022-08-25T00:59:32.036Z,51.111294
2022-08-25T01:00:31.972Z,51.111320
2022-08-25T01:01:31.969Z,51.111313
2022-08-25T01:02:32.034Z,51.111298
2022-08-25T01:03:33.395Z,51.111340
2022-08-25T01:04:31.916Z,51.111259
2022-08-25T01:05:32.947Z,51.111240
2022-08-25T01:06:31.931Z,51.111237
2022-08-25T01:07:32.077Z,51.111248
2022-08-25T01:08:32.117Z,51.111275
2022-08-25T01:09:31.977Z,51.111286
2022-08-25T01:10:31.951Z,51.111259
2022-08-25T01:11:31.956Z,51.111202
2022-08-25T01:12:32.049Z,51.111237
2022-08-25T01:13:31.992Z,51.111263
2022-08-25T01:14:31.918Z,51.111279
2022-08-25T01:15:32.010Z,51.111271
2022-08-25T01:16:31.902Z,51.111271
2022-08-25T01:17:32.002Z,51.111244
2022-08-25T01:18:31.916Z,51.111237
2022-08-25T01:19:31.897Z,51.111237
2022-08-25T01:20:31.872Z,51.111252
2022-08-25T01:21:31.844Z,51.111263
2022-08-25T01:22:31.954Z,51.111233
2022-08-25T01:23:31.912Z,51.111237
2022-08-25T01:24:31.829Z,51.111221
2022-08-25T01:25:31.827Z,51.111229
2022-08-25T01:26:31.799Z,51.111240
2022-08-25T01:27:32.843Z,51.111240
2022-08-25T01:28:31.847Z,51.111279
2022-08-25T01:29:31.833Z,51.111252
2022-08-25T01:30:31.839Z,51.111248
2022-08-25T01:31:31.835Z,51.111259
2022-08-25T01:32:32.768Z,51.111256
2022-08-25T01:33:31.802Z,51.111248
2022-08-25T01:34:31.856Z,51.111256
2022-08-25T01:35:31.772Z,51.111240
2022-08-25T01:36:31.774Z,51.111240
2022-08-25T01:37:31.722Z,51.111256
2022-08-25T01:38:31.669Z,51.111267
2022-08-25T01:39:31.740Z,51.111240
2022-08-25T01:40:31.800Z,51.111271
2022-08-25T01:41:31.665Z,51.111259
2022-08-25T01:42:31.747Z,51.111259
2022-08-25T01:43:31.644Z,51.111252
2022-08-25T01:44:31.664Z,51.111256
2022-08-25T01:45:31.654Z,51.111233
2022-08-25T01:46:31.737Z,51.111248
2022-08-25T01:47:31.682Z,51.111229
2022-08-25T01:48:31.669Z,51.111206
2022-08-25T01:49:31.723Z,51.111237
2022-08-25T01:50:31.693Z,51.111248
2022-08-25T01:51:31.648Z,51.111214
2022-08-25T01:52:31.726Z,51.111221
2022-08-25T01:53:33.533Z,51.111217
2022-08-25T01:54:31.614Z,51.111252
2022-08-25T01:55:31.701Z,51.111256
2022-08-25T01:56:31.632Z,51.111252
2022-08-25T01:57:31.633Z,51.111237
2022-08-25T01:58:31.608Z,51.111210
2022-08-25T01:59:31.624Z,51.111275
2022-08-25T02:00:31.673Z,51.111248
2022-08-25T02:01:31.702Z,51.111252
2022-08-25T02:02:31.756Z,51.111237
2022-08-25T02:03:31.655Z,51.111214
2022-08-25T02:04:31.560Z,51.111217
2022-08-25T02:05:31.611Z,51.111237
2022-08-25T02:06:31.533Z,51.111309
2022-08-25T02:07:31.569Z,51.111263
2022-08-25T02:08:31.555Z,51.111252
2022-08-25T02:09:31.541Z,51.111229
2022-08-25T02:10:31.549Z,51.111221
2022-08-25T02:11:31.584Z,51.111237
2022-08-25T02:12:31.510Z,51.111275
2022-08-25T02:13:32.583Z,51.111290
2022-08-25T02:14:31.482Z,51.111290
2022-08-25T02:15:31.478Z,51.111256
2022-08-25T02:16:31.578Z,51.111286
2022-08-25T02:17:31.454Z,51.111252
2022-08-25T02:18:31.500Z,51.111259
2022-08-25T02:19:31.477Z,51.111240
2022-08-25T02:20:31.431Z,51.111225
2022-08-25T02:21:31.471Z,51.111187
2022-08-25T02:22:31.545Z,51.111217
2022-08-25T02:23:31.443Z,51.111233
2022-08-25T02:24:31.503Z,51.111271
2022-08-25T02:25:31.362Z,51.111305
2022-08-25T02:26:31.341Z,51.111271
2022-08-25T02:27:32.378Z,51.111279
2022-08-25T02:28:31.329Z,51.111298
2022-08-25T02:29:31.353Z,51.111309
2022-08-25T02:30:31.344Z,51.111336
2022-08-25T02:31:31.314Z,51.111294
2022-08-25T02:32:31.351Z,51.111282
2022-08-25T02:33:31.303Z,51.111221
2022-08-25T02:34:31.296Z,51.111267
2022-08-25T02:35:31.934Z,51.111343
2022-08-25T02:36:31.307Z,51.111298
2022-08-25T02:37:31.242Z,51.111332
2022-08-25T02:38:31.302Z,51.111298
2022-08-25T02:39:31.283Z,51.111164
2022-08-25T02:40:31.239Z,51.111176
2022-08-25T02:41:31.803Z,51.111217
2022-08-25T02:42:31.267Z,51.111263
2022-08-25T02:43:31.423Z,51.111298
2022-08-25T02:44:31.299Z,51.111382
2022-08-25T02:45:31.363Z,51.111351
2022-08-25T02:46:31.302Z,51.111286
2022-08-25T02:47:31.331Z,51.111267
2022-08-25T02:48:31.326Z,51.111347
2022-08-25T02:49:31.302Z,51.111362
2022-08-25T02:50:31.259Z,51.111301
2022-08-25T02:51:31.229Z,51.111286
2022-08-25T02:52:31.301Z,51.111286
2022-08-25T02:53:31.238Z,51.111282
2022-08-25T02:54:31.260Z,51.111279
2022-08-25T02:55:31.282Z,51.111282
2022-08-25T02:56:31.222Z,51.111294
2022-08-25T02:57:31.224Z,51.111275
2022-08-25T02:58:31.225Z,51.111320
2022-08-25T02:59:31.236Z,51.111279
2022-08-25T03:00:31.202Z,51.111259
2022-08-25T03:01:31.301Z,51.111305
2022-08-25T03:02:31.180Z,51.111298
2022-08-25T03:03:31.189Z,51.111256
2022-08-25T03:04:31.234Z,51.111313
2022-08-25T03:05:31.177Z,51.111290
2022-08-25T03:06:31.177Z,51.111320
2022-08-25T03:07:31.128Z,51.111271
2022-08-25T03:08:31.222Z,51.111305
2022-08-25T03:09:31.151Z,51.111259
2022-08-25T03:10:31.193Z,51.111332
2022-08-25T03:11:31.112Z,51.111488
2022-08-25T03:12:31.174Z,51.111393
2022-08-25T03:13:31.096Z,51.111317
2022-08-25T03:14:31.107Z,51.111282
2022-08-25T03:15:31.473Z,51.111305
2022-08-25T03:16:31.155Z,51.111343
2022-08-25T03:17:31.076Z,51.111286
2022-08-25T03:18:31.091Z,51.111248
2022-08-25T03:19:31.038Z,51.111340
2022-08-25T03:20:31.007Z,51.111340
2022-08-25T03:21:30.957Z,51.111294
2022-08-25T03:22:30.947Z,51.111290
2022-08-25T03:23:30.977Z,51.111298
2022-08-25T03:24:31.035Z,51.111320
2022-08-25T03:25:30.960Z,51.111336
2022-08-25T03:26:31.057Z,51.111317
2022-08-25T03:27:31.029Z,51.111263
2022-08-25T03:28:30.993Z,51.111294
2022-08-25T03:29:31.013Z,51.111279
2022-08-25T03:30:30.991Z,51.111332
2022-08-25T03:31:31.101Z,51.111313
2022-08-25T03:32:30.998Z,51.111309
2022-08-25T03:33:31.032Z,51.111313
2022-08-25T03:34:30.999Z,51.111328
2022-08-25T03:35:31.074Z,51.111374
2022-08-25T03:36:30.969Z,51.111210
2022-08-25T03:37:30.929Z,51.111252
2022-08-25T03:38:30.929Z,51.111309
2022-08-25T03:39:30.930Z,51.111233
2022-08-25T03:40:30.978Z,51.111275
2022-08-25T03:41:30.915Z,51.111309
2022-08-25T03:42:30.916Z,51.111313
2022-08-25T03:43:30.899Z,51.111290
2022-08-25T03:44:30.903Z,51.111435
2022-08-25T03:45:30.874Z,51.111382
2022-08-25T03:46:30.897Z,51.111286
2022-08-25T03:47:30.953Z,51.111301
2022-08-25T03:48:30.888Z,51.111305
2022-08-25T03:49:30.848Z,51.111294
2022-08-25T03:50:30.875Z,51.111313
2022-08-25T03:51:30.885Z,51.111385
2022-08-25T03:52:30.863Z,51.111336
2022-08-25T03:53:30.818Z,51.111286
2022-08-25T03:54:30.904Z,51.111301
2022-08-25T03:55:30.849Z,51.111298
2022-08-25T03:56:30.829Z,51.111366
2022-08-25T03:57:30.834Z,51.111343
2022-08-25T03:58:30.899Z,51.111309
2022-08-25T03:59:30.775Z,51.111286
2022-08-25T04:00:30.806Z,51.111305
2022-08-25T04:01:30.807Z,51.111279
2022-08-25T04:02:31.575Z,51.111267
2022-08-25T04:03:30.735Z,51.111294
2022-08-25T04:04:30.661Z,51.111237
2022-08-25T04:05:30.695Z,51.111275
2022-08-25T04:06:30.618Z,51.111301
2022-08-25T04:07:30.692Z,51.111320
2022-08-25T04:08:30.683Z,51.111294
2022-08-25T04:09:33.138Z,51.111309
2022-08-25T04:10:31.674Z,51.111263
2022-08-25T04:11:30.633Z,51.111271
2022-08-25T04:12:30.626Z,51.111309
2022-08-25T04:13:30.627Z,51.111282
2022-08-25T04:14:30.676Z,51.111229
2022-08-25T04:15:30.647Z,51.111271
2022-08-25T04:16:30.661Z,51.111294
2022-08-25T04:17:30.595Z,51.111294
2022-08-25T04:18:30.629Z,51.111298
2022-08-25T04:19:31.043Z,51.111294
2022-08-25T04:20:30.678Z,51.111305
2022-08-25T04:21:30.699Z,51.111336
2022-08-25T04:22:30.680Z,51.111328
2022-08-25T04:23:30.613Z,51.111313
2022-08-25T04:24:30.664Z,51.111279
2022-08-25T04:25:30.602Z,51.111290
2022-08-25T04:26:30.603Z,51.111305
2022-08-25T04:27:30.584Z,51.111301
2022-08-25T04:28:30.570Z,51.111423
2022-08-25T04:29:30.577Z,51.111378
2022-08-25T04:30:30.645Z,51.111355
2022-08-25T04:31:30.639Z,51.111347
2022-08-25T04:32:30.604Z,51.111340
2022-08-25T04:33:30.590Z,51.111286
2022-08-25T04:34:31.552Z,51.111286
2022-08-25T04:35:31.578Z,51.111301
2022-08-25T04:36:30.576Z,51.111282
2022-08-25T04:37:30.522Z,51.111305
2022-08-25T04:38:30.498Z,51.111320
2022-08-25T04:39:30.552Z,51.111328
2022-08-25T04:40:30.632Z,51.111263
2022-08-25T04:41:30.511Z,51.111286
2022-08-25T04:42:30.524Z,51.111282
2022-08-25T04:43:30.495Z,51.111298
2022-08-25T04:44:30.522Z,51.111301
2022-08-25T04:45:30.512Z,51.111317
2022-08-25T04:46:30.487Z,51.111317
2022-08-25T04:47:30.452Z,51.111305
2022-08-25T04:48:30.406Z,51.111282
2022-08-25T04:49:31.468Z,51.111328
2022-08-25T04:50:30.496Z,51.111328
2022-08-25T04:51:30.456Z,51.111309
2022-08-25T04:52:30.398Z,51.111294
2022-08-25T04:53:30.417Z,51.111286
2022-08-25T04:54:36.015Z,51.111282
2022-08-25T04:55:31.420Z,51.111290
2022-08-25T04:56:30.467Z,51.111328
2022-08-25T04:57:30.405Z,51.111294
2022-08-25T04:58:30.388Z,51.111248
2022-08-25T04:59:30.809Z,51.111282
2022-08-25T05:00:30.363Z,51.111282
2022-08-25T05:01:30.524Z,51.111275
2022-08-25T05:02:30.397Z,51.111286
2022-08-25T05:03:30.383Z,51.111313
2022-08-25T05:04:30.363Z,51.111298
2022-08-25T05:05:30.393Z,51.111294
2022-08-25T05:06:30.342Z,51.111286
2022-08-25T05:07:30.443Z,51.111328
2022-08-25T05:08:30.348Z,51.111313
2022-08-25T05:09:32.658Z,51.111347
2022-08-25T05:10:30.484Z,51.111351
2022-08-25T05:11:30.222Z,51.111336
2022-08-25T05:12:30.293Z,51.111336
2022-08-25T05:13:30.218Z,51.111401
2022-08-25T05:14:30.215Z,51.111382
2022-08-25T05:15:30.153Z,51.111408
2022-08-25T05:16:30.210Z,51.111385
2022-08-25T05:17:30.265Z,51.111336
2022-08-25T05:18:30.168Z,51.111324
2022-08-25T05:19:30.293Z,51.111328
2022-08-25T05:20:30.272Z,51.111328
2022-08-25T05:21:30.240Z,51.111294
2022-08-25T05:22:30.276Z,51.111286
2022-08-25T05:23:30.229Z,51.111294
2022-08-25T05:24:30.212Z,51.111313
2022-08-25T05:25:30.233Z,51.111286
2022-08-25T05:26:30.294Z,51.111256
2022-08-25T05:27:30.240Z,51.111271
2022-08-25T05:28:30.306Z,51.111263
2022-08-25T05:29:30.219Z,51.111263
2022-08-25T05:30:30.252Z,51.111267
2022-08-25T05:31:30.203Z,51.111271
2022-08-25T05:32:30.167Z,51.111256
2022-08-25T05:33:30.512Z,51.111259
2022-08-25T05:34:30.189Z,51.111279
2022-08-25T05:35:30.161Z,51.111267
2022-08-25T05:36:30.115Z,51.111271
2022-08-25T05:37:30.149Z,51.111267
2022-08-25T05:38:30.127Z,51.111271
2022-08-25T05:39:30.105Z,51.111267
2022-08-25T05:40:30.116Z,51.111267
2022-08-25T05:41:30.090Z,51.111275
2022-08-25T05:42:29.974Z,51.111282
2022-08-25T05:43:30.023Z,51.111275
2022-08-25T05:44:29.974Z,51.111275
2022-08-25T05:45:29.995Z,51.111275
2022-08-25T05:46:31.646Z,51.111286
2022-08-25T05:47:29.958Z,51.111248
2022-08-25T05:48:29.936Z,51.111263
2022-08-25T05:49:29.987Z,51.111252
2022-08-25T05:50:29.907Z,51.111256
2022-08-25T05:51:29.934Z,51.111275
2022-08-25T05:52:29.898Z,51.111267
2022-08-25T05:53:31.101Z,51.111263
2022-08-25T05:54:29.927Z,51.111309
2022-08-25T05:55:29.899Z,51.111275
2022-08-25T05:56:29.872Z,51.111275
2022-08-25T05:57:29.958Z,51.111290
2022-08-25T05:58:29.974Z,51.111267
2022-08-25T05:59:30.055Z,51.111286
2022-08-25T06:00:29.988Z,51.111290
2022-08-25T06:01:29.998Z,51.111282
2022-08-25T06:02:29.920Z,51.111324
2022-08-25T06:03:29.972Z,51.111279
2022-08-25T06:04:29.917Z,51.111298
2022-08-25T06:05:29.935Z,51.111359
2022-08-25T06:06:29.954Z,51.111336
2022-08-25T06:07:29.917Z,51.111290
2022-08-25T06:08:29.913Z,51.111313
2022-08-25T06:09:29.917Z,51.111370
2022-08-25T06:10:29.955Z,51.111320
2022-08-25T06:11:29.869Z,51.111309
2022-08-25T06:12:29.972Z,51.111267
2022-08-25T06:13:29.883Z,51.111240
2022-08-25T06:14:29.934Z,51.111225
2022-08-25T06:15:29.887Z,51.111198
2022-08-25T06:16:29.882Z,51.111248
2022-08-25T06:17:29.804Z,51.111259
2022-08-25T06:18:29.780Z,51.111290
2022-08-25T06:19:29.854Z,51.111298
2022-08-25T06:20:29.859Z,51.111313
2022-08-25T06:21:29.809Z,51.111252
2022-08-25T06:22:29.831Z,51.111191
2022-08-25T06:23:29.836Z,51.111259
2022-08-25T06:24:29.776Z,51.111305
2022-08-25T06:25:29.797Z,51.111294
2022-08-25T06:26:29.795Z,51.111271
2022-08-25T06:27:29.795Z,51.111267
2022-08-25T06:28:29.788Z,51.111290
2022-08-25T06:29:29.731Z,51.111282
2022-08-25T06:30:29.857Z,51.111282
2022-08-25T06:31:29.829Z,51.111240
2022-08-25T06:32:29.726Z,51.111210
2022-08-25T06:33:29.768Z,51.111221
2022-08-25T06:34:29.716Z,51.111237
2022-08-25T06:35:29.850Z,51.111259
2022-08-25T06:36:29.724Z,51.111217
2022-08-25T06:37:29.775Z,51.111263
2022-08-25T06:38:29.691Z,51.111309
2022-08-25T06:39:29.676Z,51.111286
2022-08-25T06:40:29.724Z,51.111244
2022-08-25T06:41:36.503Z,51.111248
2022-08-25T06:42:30.640Z,51.111263
2022-08-25T06:43:29.632Z,51.111259
2022-08-25T06:44:29.655Z,51.111267
2022-08-25T06:45:29.606Z,51.111259
2022-08-25T06:46:36.383Z,51.111279
2022-08-25T06:47:30.626Z,51.111248
2022-08-25T06:48:29.572Z,51.111237
2022-08-25T06:49:34.172Z,51.111256
2022-08-25T06:50:31.642Z,51.111286
2022-08-25T06:51:29.621Z,51.111286
2022-08-25T06:52:29.688Z,51.111271
2022-08-25T06:53:29.575Z,51.111294
2022-08-25T06:54:29.506Z,51.111237
2022-08-25T06:55:29.430Z,51.111336
2022-08-25T06:56:29.483Z,51.111313
2022-08-25T06:57:29.441Z,51.111328
2022-08-25T06:58:29.441Z,51.111324
2022-08-25T06:59:32.003Z,51.111359
2022-08-25T07:00:30.357Z,51.111351
2022-08-25T07:01:29.472Z,51.111282
2022-08-25T07:02:29.571Z,51.111271
2022-08-25T07:03:30.435Z,51.111271
2022-08-25T07:04:29.417Z,51.111244
2022-08-25T07:05:42.632Z,51.111248
2022-08-25T07:06:31.396Z,51.111275
2022-08-25T07:07:43.614Z,51.111286
2022-08-25T07:08:30.409Z,51.111286
2022-08-25T07:09:29.386Z,51.111279
2022-08-25T07:10:29.348Z,51.111290
2022-08-25T07:11:29.346Z,51.111282
2022-08-25T07:12:29.388Z,51.111271
2022-08-25T07:13:29.333Z,51.111279
2022-08-25T07:14:29.306Z,51.111279
2022-08-25T07:15:29.471Z,51.111290
2022-08-25T07:16:29.699Z,51.111279
2022-08-25T07:17:29.322Z,51.111282
2022-08-25T07:18:29.437Z,51.111248
2022-08-25T07:19:29.425Z,51.111271
2022-08-25T07:20:29.393Z,51.111267
2022-08-25T07:21:33.155Z,51.111259
2022-08-25T07:22:30.251Z,51.111275
2022-08-25T07:23:29.419Z,51.111279
2022-08-25T07:24:29.364Z,51.111267
2022-08-25T07:25:29.351Z,51.111263
2022-08-25T07:26:38.182Z,51.111271
2022-08-25T07:27:31.240Z,51.111298
2022-08-25T07:28:29.415Z,51.111290
2022-08-25T07:29:32.392Z,51.111294
2022-08-25T07:30:29.338Z,51.111305
2022-08-25T07:31:29.747Z,51.111305
2022-08-25T07:32:29.325Z,51.111286
2022-08-25T07:33:29.323Z,51.111282
2022-08-25T07:34:29.326Z,51.111290
2022-08-25T07:35:37.663Z,51.111282
2022-08-25T07:36:30.161Z,51.111271
2022-08-25T07:37:49.985Z,51.111294
2022-08-25T07:38:31.161Z,51.111286
2022-08-25T07:39:29.309Z,51.111290
2022-08-25T07:40:29.337Z,51.111301
2022-08-25T07:41:29.248Z,51.111313
2022-08-25T07:42:29.465Z,51.111305
2022-08-25T07:43:29.250Z,51.111305
2022-08-25T07:44:29.349Z,51.111279
2022-08-25T07:45:29.235Z,51.111267
2022-08-25T07:46:29.320Z,51.111267
2022-08-25T07:47:29.196Z,51.111298
2022-08-25T07:48:29.189Z,51.111309
2022-08-25T07:49:35.967Z,51.111313
2022-08-25T07:50:30.220Z,51.111317
2022-08-25T07:51:29.188Z,51.111320
2022-08-25T07:52:29.137Z,51.111324
2022-08-25T07:53:29.165Z,51.111294
2022-08-25T07:54:33.948Z,51.111286
2022-08-25T07:55:30.214Z,51.111294
2022-08-25T07:56:29.179Z,51.111290
2022-08-25T07:57:29.156Z,51.111282
2022-08-25T07:58:29.112Z,51.111301
2022-08-25T07:59:29.096Z,51.111305
2022-08-25T08:00:29.178Z,51.111313
2022-08-25T08:01:29.127Z,51.111305
2022-08-25T08:02:29.169Z,51.111309
2022-08-25T08:03:45.155Z,51.111294
2022-08-25T08:04:30.974Z,51.111290
2022-08-25T08:05:29.119Z,51.111298
2022-08-25T08:06:29.144Z,51.111233
2022-08-25T08:07:43.122Z,51.111294
2022-08-25T08:08:30.097Z,51.111248
2022-08-25T08:09:29.125Z,51.111279
2022-08-25T08:10:47.844Z,51.111275
2022-08-25T08:11:30.977Z,51.111263
2022-08-25T08:12:29.117Z,51.111294
2022-08-25T08:13:29.026Z,51.111225
2022-08-25T08:14:29.042Z,51.111252
2022-08-25T08:15:29.963Z,51.111256
2022-08-25T08:16:29.079Z,51.111252
2022-08-25T08:17:28.978Z,51.111233
2022-08-25T08:18:28.917Z,51.111275
2022-08-25T08:19:28.878Z,51.111217
2022-08-25T08:20:28.957Z,51.111233
2022-08-25T08:21:28.941Z,51.111259
2022-08-25T08:22:28.858Z,51.111275
2022-08-25T08:23:28.874Z,51.111198
2022-08-25T08:24:44.159Z,51.111229
2022-08-25T08:25:30.903Z,51.111275
2022-08-25T08:26:48.109Z,51.111256
2022-08-25T08:27:30.922Z,51.111275
2022-08-25T08:28:28.813Z,51.111259
2022-08-25T08:29:28.813Z,51.111290
2022-08-25T08:30:28.972Z,51.111221
2022-08-25T08:31:28.953Z,51.111214
2022-08-25T08:32:45.074Z,51.111225
2022-08-25T08:33:30.797Z,51.111210
2022-08-25T08:34:28.791Z,51.111240
2022-08-25T08:35:28.853Z,51.111214
2022-08-25T08:36:28.860Z,51.111179
2022-08-25T08:37:28.899Z,51.111134
2022-08-25T08:38:28.806Z,51.111118
2022-08-25T08:39:28.873Z,51.111206
2022-08-25T08:40:28.952Z,51.111275
2022-08-25T08:41:28.827Z,51.111202
2022-08-25T08:42:28.833Z,51.111248
2022-08-25T08:43:33.229Z,51.111263
2022-08-25T08:44:29.813Z,51.111290
2022-08-25T08:45:28.809Z,51.111279
2022-08-25T08:46:28.840Z,51.111263
2022-08-25T08:47:28.852Z,51.111294
2022-08-25T08:48:28.823Z,51.111237
2022-08-25T08:49:28.843Z,51.111263
2022-08-25T08:50:32.923Z,51.111210
2022-08-25T08:51:32.965Z,51.111183
2022-08-25T08:52:28.775Z,51.111107
2022-08-25T08:53:28.862Z,51.111084
2022-08-25T08:54:29.755Z,51.111233
2022-08-25T08:55:28.811Z,51.111233
2022-08-25T08:56:30.701Z,51.111202
2022-08-25T08:57:28.785Z,51.111153
2022-08-25T08:58:28.717Z,51.111195
2022-08-25T08:59:30.352Z,51.111229
2022-08-25T09:00:28.695Z,51.111233
2022-08-25T09:01:28.796Z,51.111252
2022-08-25T09:02:38.836Z,51.111259
2022-08-25T09:03:29.632Z,51.111248
2022-08-25T09:04:28.719Z,51.111267
2022-08-25T09:05:28.644Z,51.111221
2022-08-25T09:06:28.658Z,51.111240
2022-08-25T09:07:28.633Z,51.111256
2022-08-25T09:08:28.666Z,51.111248
2022-08-25T09:09:28.701Z,51.111240
2022-08-25T09:10:28.599Z,51.111217
2022-08-25T09:11:28.609Z,51.111244
2022-08-25T09:12:28.668Z,51.111252
2022-08-25T09:13:28.602Z,51.111252
2022-08-25T09:14:30.299Z,51.111256
2022-08-25T09:15:28.645Z,51.111237
2022-08-25T09:16:33.853Z,51.111252
2022-08-25T09:17:28.623Z,51.111237
2022-08-25T09:18:28.702Z,51.111263
2022-08-25T09:19:28.574Z,51.111248
2022-08-25T09:20:28.566Z,51.111244
2022-08-25T09:21:28.472Z,51.111240
2022-08-25T09:22:35.813Z,51.111237
2022-08-25T09:23:29.423Z,51.111259
2022-08-25T09:24:28.462Z,51.111267
2022-08-25T09:25:48.727Z,51.111271
2022-08-25T09:26:30.417Z,51.111252
2022-08-25T09:27:28.412Z,51.111256
2022-08-25T09:28:28.389Z,51.111271
2022-08-25T09:29:28.407Z,51.111259
2022-08-25T09:30:28.385Z,51.111252
2022-08-25T09:31:29.862Z,51.111263
2022-08-25T09:32:31.571Z,51.111263
2022-08-25T09:33:28.384Z,51.111248
2022-08-25T09:34:28.384Z,51.111267
2022-08-25T09:35:28.385Z,51.111267
2022-08-25T09:36:28.391Z,51.111263
2022-08-25T09:37:28.412Z,51.111256
2022-08-25T09:38:28.447Z,51.111240
2022-08-25T09:39:28.467Z,51.111248
2022-08-25T09:40:28.533Z,51.111237
2022-08-25T09:41:28.546Z,51.111240
2022-08-25T09:42:28.432Z,51.111237
2022-08-25T09:43:28.402Z,51.111256
2022-08-25T09:44:28.410Z,51.111263
2022-08-25T09:45:28.379Z,51.111263
2022-08-25T09:46:28.425Z,51.111275
2022-08-25T09:47:28.478Z,51.111279
2022-08-25T09:48:28.469Z,51.111271
2022-08-25T09:49:28.380Z,51.111252
2022-08-25T09:50:28.331Z,51.111240
2022-08-25T09:51:28.365Z,51.111248
2022-08-25T09:52:28.378Z,51.111252
2022-08-25T09:53:28.405Z,51.111221
2022-08-25T09:54:36.319Z,51.111248
2022-08-25T09:55:29.243Z,51.111240
2022-08-25T09:56:28.334Z,51.111263
2022-08-25T09:57:28.309Z,51.111256
2022-08-25T09:58:28.319Z,51.111275
2022-08-25T09:59:34.081Z,51.111244
2022-08-25T10:00:29.305Z,51.111248
2022-08-25T10:01:29.305Z,51.111282
2022-08-25T10:02:29.339Z,51.111309
2022-08-25T10:03:28.250Z,51.111294
2022-08-25T10:04:28.248Z,51.111290
2022-08-25T10:05:28.259Z,51.111275
2022-08-25T10:06:28.230Z,51.111263
2022-08-25T10:07:28.212Z,51.111229
2022-08-25T10:08:28.294Z,51.111252
2022-08-25T10:09:28.216Z,51.111286
2022-08-25T10:10:28.167Z,51.111275
2022-08-25T10:11:28.201Z,51.111271
2022-08-25T10:12:28.191Z,51.111256
2022-08-25T10:13:28.244Z,51.111259
2022-08-25T10:14:28.161Z,51.111263
2022-08-25T10:15:29.422Z,51.111256
2022-08-25T10:16:33.626Z,51.111248
2022-08-25T10:17:30.176Z,51.111259
2022-08-25T10:18:28.250Z,51.111256
2022-08-25T10:19:28.156Z,51.111267
2022-08-25T10:20:33.065Z,51.111275
2022-08-25T10:21:29.149Z,51.111259
2022-08-25T10:22:28.098Z,51.111233
2022-08-25T10:23:28.119Z,51.111259
2022-08-25T10:24:28.123Z,51.111244
2022-08-25T10:25:28.084Z,51.111267
2022-08-25T10:26:28.073Z,51.111248
2022-08-25T10:27:28.810Z,51.111233
2022-08-25T10:28:29.058Z,51.111263
2022-08-25T10:29:28.009Z,51.111324
2022-08-25T10:30:27.973Z,51.111332
2022-08-25T10:31:28.006Z,51.111332
2022-08-25T10:32:27.999Z,51.111317
2022-08-25T10:33:27.954Z,51.111256
2022-08-25T10:34:28.328Z,51.111240
2022-08-25T10:35:27.991Z,51.111256
2022-08-25T10:36:27.939Z,51.111263
2022-08-25T10:37:27.940Z,51.111355
2022-08-25T10:38:33.443Z,51.111336
2022-08-25T10:39:34.035Z,51.111347
2022-08-25T10:40:29.010Z,51.111324
2022-08-25T10:41:27.903Z,51.111336
2022-08-25T10:42:28.084Z,51.111263
2022-08-25T10:43:28.042Z,51.111279
2022-08-25T10:44:27.937Z,51.111309
2022-08-25T10:45:28.051Z,51.111324
2022-08-25T10:46:27.895Z,51.111248
2022-08-25T10:47:27.889Z,51.111301
2022-08-25T10:48:27.927Z,51.111340
2022-08-25T10:49:27.919Z,51.111355
2022-08-25T10:50:27.937Z,51.111378
2022-08-25T10:51:27.886Z,51.111393
2022-08-25T10:52:27.866Z,51.111374
2022-08-25T10:53:27.904Z,51.111343
2022-08-25T10:54:27.908Z,51.111343
2022-08-25T10:55:27.910Z,51.111336
2022-08-25T10:56:27.874Z,51.111301
2022-08-25T10:57:27.859Z,51.111340
2022-08-25T10:58:30.805Z,51.111343
2022-08-25T10:59:27.858Z,51.111374
2022-08-25T11:00:31.310Z,51.111401
2022-08-25T11:01:29.010Z,51.111401
2022-08-25T11:02:27.745Z,51.111355
2022-08-25T11:03:27.822Z,51.111332
2022-08-25T11:04:28.876Z,51.111370
2022-08-25T11:05:27.836Z,51.111324
2022-08-25T11:06:27.907Z,51.111340
2022-08-25T11:07:27.808Z,51.111340
2022-08-25T11:08:27.837Z,51.111298
2022-08-25T11:09:27.793Z,51.111290
2022-08-25T11:10:27.771Z,51.111336
2022-08-25T11:11:27.799Z,51.111412
2022-08-25T11:12:27.746Z,51.111401
2022-08-25T11:13:27.750Z,51.111511
2022-08-25T11:14:30.370Z,51.111431
2022-08-25T11:15:28.761Z,51.111370
2022-08-25T11:16:27.804Z,51.111366
2022-08-25T11:17:28.733Z,51.111412
2022-08-25T11:18:27.740Z,51.111423
2022-08-25T11:19:27.685Z,51.111355
2022-08-25T11:20:27.794Z,51.111389
2022-08-25T11:21:27.684Z,51.111382
2022-08-25T11:22:27.695Z,51.111328
2022-08-25T11:23:27.707Z,51.111267
2022-08-25T11:24:27.669Z,51.111286